Newhall, West Virginia
Current Conditions -  °F | °C
As of 4:55 PM on Saturday 25 Oct 2014 (Local Time) from KJFZ Reporting Station
Overcast Overcast  
Wind Chill: 65°   Ceiling: 3300
Heat Index: 65°   Visibility: 10mi
Dew Point: 29°   Wind: 6mph
Humidity: 26%   Direction: 240°WSW
Pressure: 30.01"   Gusts: NA
Location:  37.26°N, 81.62°W
Report Text: KJFZ 252055Z AUTO 24005KT 10SM BKN033 OVC043 18/M01 A3001 RMK AO2 T01831014
Loading
Personal Weather Stations






























Interactive Weather Map
Tropical Storm Tracking
New forecast layout! Learn more

10-Day Weather Forecast

Advertisements
Track Severe Weather on mobile